sensor_id;sensor_type;location;lat;lon;timestamp;temperature;humidity
43842;DHT22;29495;49.970;20.842;2024-01-30T02:07:44;1.10;99.90
43842;DHT22;29495;49.970;20.842;2024-01-30T02:10:10;1.00;99.90
43842;DHT22;29495;49.970;20.842;2024-01-30T02:12:37;1.10;99.90
43842;DHT22;29495;49.970;20.842;2024-01-30T02:15:04;1.10;99.90
43842;DHT22;29495;49.970;20.842;2024-01-30T02:17:31;1.10;99.90
43842;DHT22;29495;49.970;20.842;2024-01-30T02:19:59;1.10;99.90
43842;DHT22;29495;49.970;20.842;2024-01-30T02:22:25;1.10;99.90
43842;DHT22;29495;49.970;20.842;2024-01-30T02:24:51;1.10;99.90
43842;DHT22;29495;49.970;20.842;2024-01-30T02:27:17;1.10;99.90
43842;DHT22;29495;49.970;20.842;2024-01-30T02:29:44;1.10;99.90
43842;DHT22;29495;49.970;20.842;2024-01-30T02:32:10;1.10;99.90
43842;DHT22;29495;49.970;20.842;2024-01-30T02:34:36;1.10;99.90
43842;DHT22;29495;49.970;20.842;2024-01-30T02:37:02;1.10;99.90
43842;DHT22;29495;49.970;20.842;2024-01-30T02:39:29;1.10;99.90
43842;DHT22;29495;49.970;20.842;2024-01-30T02:41:56;1.10;99.90
43842;DHT22;29495;49.970;20.842;2024-01-30T02:44:23;1.00;99.90
43842;DHT22;29495;49.970;20.842;2024-01-30T02:46:49;1.00;99.90
43842;DHT22;29495;49.970;20.842;2024-01-30T02:49:17;1.00;99.90
43842;DHT22;29495;49.970;20.842;2024-01-30T02:51:43;1.00;99.90
43842;DHT22;29495;49.970;20.842;2024-01-30T02:54:09;1.00;99.90
43842;DHT22;29495;49.970;20.842;2024-01-30T02:56:36;1.00;99.90
43842;DHT22;29495;49.970;20.842;2024-01-30T02:59:02;1.00;99.90
43842;DHT22;29495;49.970;20.842;2024-01-30T03:01:28;1.00;99.90
43842;DHT22;29495;49.970;20.842;2024-01-30T03:03:57;1.00;99.90
43842;DHT22;29495;49.970;20.842;2024-01-30T03:06:23;1.00;99.90
43842;DHT22;29495;49.970;20.842;2024-01-30T03:08:50;1.00;99.90
43842;DHT22;29495;49.970;20.842;2024-01-30T03:11:16;1.00;99.90
43842;DHT22;29495;49.970;20.842;2024-01-30T03:13:42;1.00;99.90
43842;DHT22;29495;49.970;20.842;2024-01-30T03:16:08;1.00;99.90
43842;DHT22;29495;49.970;20.842;2024-01-30T03:18:35;1.00;99.90
43842;DHT22;29495;49.970;20.842;2024-01-30T03:21:01;1.00;99.90
43842;DHT22;29495;49.970;20.842;2024-01-30T03:23:27;1.00;99.90
43842;DHT22;29495;49.970;20.842;2024-01-30T03:25:53;1.00;99.90
43842;DHT22;29495;49.970;20.842;2024-01-30T03:28:19;1.00;99.90
43842;DHT22;29495;49.970;20.842;2024-01-30T03:30:45;0.90;99.90
43842;DHT22;29495;49.970;20.842;2024-01-30T03:33:12;0.90;99.90
43842;DHT22;29495;49.970;20.842;2024-01-30T03:35:38;0.90;99.90
43842;DHT22;29495;49.970;20.842;2024-01-30T03:38:06;0.90;99.90
43842;DHT22;29495;49.970;20.842;2024-01-30T03:40:40;0.90;99.90
43842;DHT22;29495;49.970;20.842;2024-01-30T03:43:06;0.90;99.90
43842;DHT22;29495;49.970;20.842;2024-01-30T03:45:32;0.90;99.90
43842;DHT22;29495;49.970;20.842;2024-01-30T03:47:59;0.90;99.90
43842;DHT22;29495;49.970;20.842;2024-01-30T03:50:24;0.90;99.90
43842;DHT22;29495;49.970;20.842;2024-01-30T03:52:51;0.90;99.90
43842;DHT22;29495;49.970;20.842;2024-01-30T03:55:17;0.90;99.90
43842;DHT22;29495;49.970;20.842;2024-01-30T03:57:43;0.90;99.90
43842;DHT22;29495;49.970;20.842;2024-01-30T04:00:10;0.90;99.90
43842;DHT22;29495;49.970;20.842;2024-01-30T04:02:40;0.80;99.90
43842;DHT22;29495;49.970;20.842;2024-01-30T04:05:06;0.90;99.90
43842;DHT22;29495;49.970;20.842;2024-01-30T04:07:32;0.80;99.90
43842;DHT22;29495;49.970;20.842;2024-01-30T04:09:58;0.90;99.90
43842;DHT22;29495;49.970;20.842;2024-01-30T04:12:24;0.90;99.90
43842;DHT22;29495;49.970;20.842;2024-01-30T05:42:57;0.70;99.90
43842;DHT22;29495;49.970;20.842;2024-01-30T05:45:27;0.70;99.90
43842;DHT22;29495;49.970;20.842;2024-01-30T05:47:53;0.70;99.90
43842;DHT22;29495;49.970;20.842;2024-01-30T05:50:20;0.70;99.90
43842;DHT22;29495;49.970;20.842;2024-01-30T05:52:49;0.70;99.90
43842;DHT22;29495;49.970;20.842;2024-01-30T05:55:16;0.70;99.90
43842;DHT22;29495;49.970;20.842;2024-01-30T05:57:43;0.70;99.90
43842;DHT22;29495;49.970;20.842;2024-01-30T06:11:02;0.80;99.90
43842;DHT22;29495;49.970;20.842;2024-01-30T06:17:47;0.80;99.90
43842;DHT22;29495;49.970;20.842;2024-01-30T07:33:21;5.60;93.80
43842;DHT22;29495;49.970;20.842;2024-01-30T07:35:56;5.90;94.20
43842;DHT22;29495;49.970;20.842;2024-01-30T07:38:33;5.70;94.50
43842;DHT22;29495;49.970;20.842;2024-01-30T07:41:09;5.90;94.10
